Current | Forecast
Updated: 3:00 PM JST on September 25, 2017
Observed at Aomori Airport, Japan
Temperature 72°F
Humidity 57%
Dew Point 55°F
Wind West at 10 mph
Pressure 29.92 in (Steady)
Conditions Partly Cloudy
Visibility 6.2 miles
UV 2 out of 16
Clouds (FEW) : 3000 ft
Yesterday's Maximum 73°F
Yesterday's Minimum 52°F approx.
Yesterday's Heating Degree Days 2 approx.
Sunrise5:25 AM JST
Sunset5:27 PM JST
Moon Rise10:02 AM JST
Moon Set8:30 PM JST
Moon PhaseMoon Phase
Waxing Crescent
Raw METARMETAR RJSA 250600Z 28009KT 9999 FEW030 SCT/// 22/13 Q1013


Monday
. High: 61° F.
Tuesday
. High: 62° F.
Wednesday
. High: 59° F.
Thursday
. High: 59° F.
Friday
. High: 60° F.
Saturday
. High: 60° F.
Sunday
. High: 55° F.
Monday
. High: 55° F.

Units: English | Metric

Find the Weather for any City, State or Zipcode, or Country:

U.S. State List | Severe Weather | Tropical Storms | Ski Conditions
United States | Canada | Central America | South America | Asia | Europe | Australia | Africa | Islands

Weather Underground

© Copyright 2017
The Weather Company, LLC